Главная страница
METAR-TAF:

METAR-TAF

Аэропорты :

Sullivan County International Airport

Monticello, Нью-Йорк, США

широта: 41-42N, долгота: 074-48W, высота над уровнем моря: 428 м

Текущие метеонаблюдения

Эта сводка был подготовлена 1 час и 7 минут назад, в 20:56 UTC
Штиль
Температура 3°C
Влажность 93%
Давление 1027 hPa
Видимость: 0.4 км
Сплошная облачность на высоте 300 фута
небольшой дождь, туман

METAR: KMSV 142056Z AUTO 00000KT 1/4SM -RA FG OVC003 03/02 A3033 RMK AO2 RAB44 SLP286 P0000 60000 T00280022 55002 RVRNO

Время: 17:03 (22:03 UTC)


TAF: отсутствует

Метеонаблюдения и прогнозы для более 4000 аэропортов (сводки METAR и TAF).

Имеющиеся станции представлены на карте желтыми и красными точками.

Чтобы увидеть название станции, наведите на нее мышь.

Затем щелкните, чтобы увидеть метеонаблюдения и метеопрогнозы.

Управление картой: чтобы увеличить масштаб, щелкните зеленые кнопки с черным крестиком; чтобы уменьшить масштаб, щелкните зеленую кнопку с тире; для просмотра соседних карт щелкайте зеленые стрелки.


METAR-TAF: